Terminal Aerodrome Forecast
Issued by NWS Spokane, WA

Home | Current Version | Previous Version | Text Only | Print | Product List | Glossary On
Versions: 1 2 3 4 5 6 7 8 9 10 11 12 13 14 15 16 17 18 19 20 21 22 23 24 25 26 27 28 29 30 31 32 33 34 35 36 37 38 39 40 41 42 43 44 45 46 47 48 49 50
000
FTUS46 KOTX 212346
TAFEAT
TAF
KEAT 212346Z 2200/2224 15003KT P6SM OVC022
     FM220300 VRB03KT 4SM -RASN BR OVC015
     FM220700 30004KT 2SM BR SCT008 OVC015
     FM221600 VRB03KT 1 1/2SM -SN BKN008 OVC012
     FM221900 VRB03KT 3SM -SNRA SCT008 OVC015=

USA.gov is the U.S. government's official web portal to all federal, state and local government web resources and services.